Time;durP1;ratioP1;P1;durP2;ratioP2;P2;SDS_P1;SDS_P2;PMS_P1;PMS_P2;Temp;Humidity;BMP_temperature;BMP_pressure;BME280_temperature;BME280_humidity;BME280_pressure;Samples;Min_cycle;Max_cycle;Signal;HPM_P1;HPM_P2
2023/10/03 00:00:58;;;;;;;;;;;20.30;99.90;;;;;;5074251;28;20046;-74
2023/10/03 00:03:23;;;;;;;;;;;20.20;99.90;;;;;;5075000;28;19959;-75
2023/10/03 00:05:51;;;;;;;;;;;20.30;99.90;;;;;;5075647;28;19909;-75
2023/10/03 00:08:17;;;;;;;;;;;20.30;99.90;;;;;;5074762;28;19915;-76
2023/10/03 00:10:43;;;;;;;;;;;20.20;99.90;;;;;;5076131;28;19916;-77
2023/10/03 00:13:11;;;;;;;;;;;20.30;99.90;;;;;;5075871;28;19908;-75
2023/10/03 00:15:43;;;;;;;;;;;20.20;99.90;;;;;;5074242;28;19912;-76
2023/10/03 00:18:12;;;;;;;;;;;20.20;99.90;;;;;;5075951;28;19912;-75
2023/10/03 00:20:38;;;;;;;;;;;20.20;99.90;;;;;;5073991;28;19981;-76
2023/10/03 00:23:04;;;;;;;;;;;20.10;99.90;;;;;;5075744;28;19917;-76
2023/10/03 00:25:30;;;;;;;;;;;20.20;99.90;;;;;;5075413;28;19915;-75
2023/10/03 00:27:59;;;;;;;;;;;20.20;99.90;;;;;;5074178;28;20323;-76
2023/10/03 00:30:25;;;;;;;;;;;20.20;99.90;;;;;;5078342;28;19920;-75
2023/10/03 00:32:51;;;;;;;;;;;20.20;99.90;;;;;;5078359;28;19916;-75
2023/10/03 00:35:19;;;;;;;;;;;20.30;99.90;;;;;;5079301;28;19970;-76
2023/10/03 00:37:46;;;;;;;;;;;20.40;99.90;;;;;;5079373;28;20052;-75
2023/10/03 00:42:50;;;;;;;;;;;20.50;99.90;;;;;;5079646;28;19989;-76
2023/10/03 00:45:19;;;;;;;;;;;20.50;99.90;;;;;;5077811;28;19908;-76
2023/10/03 00:47:52;;;;;;;;;;;20.60;99.90;;;;;;5079210;28;20388;-75
2023/10/03 00:50:20;;;;;;;;;;;20.60;99.90;;;;;;5079280;28;20322;-75
2023/10/03 00:53:00;;;;;;;;;;;20.60;99.90;;;;;;5079120;28;19909;-78
2023/10/03 00:55:27;;;;;;;;;;;20.70;99.90;;;;;;5077595;28;19939;-76
2023/10/03 00:58:06;;;;;;;;;;;20.70;99.90;;;;;;5079315;28;20292;-76
2023/10/03 01:00:39;;;;;;;;;;;20.70;99.90;;;;;;5079091;28;20241;-76
2023/10/03 01:03:09;;;;;;;;;;;20.70;99.90;;;;;;5079128;28;19923;-76
2023/10/03 01:05:34;;;;;;;;;;;20.70;99.90;;;;;;5077963;28;19951;-75
2023/10/03 01:08:00;;;;;;;;;;;20.70;99.90;;;;;;5077388;28;19913;-76
2023/10/03 01:10:25;;;;;;;;;;;20.70;99.90;;;;;;5078781;28;19908;-75
2023/10/03 01:12:54;;;;;;;;;;;20.70;99.90;;;;;;5079050;28;19912;-76
2023/10/03 01:15:20;;;;;;;;;;;20.70;99.90;;;;;;5078698;28;19912;-75
2023/10/03 01:17:49;;;;;;;;;;;20.80;99.90;;;;;;5077478;28;19959;-76
2023/10/03 01:20:28;;;;;;;;;;;20.80;99.90;;;;;;5077333;28;19913;-76
2023/10/03 01:22:54;;;;;;;;;;;20.80;99.90;;;;;;5072522;28;19915;-76
2023/10/03 01:25:20;;;;;;;;;;;20.90;99.90;;;;;;5078694;28;19952;-75
2023/10/03 01:27:46;;;;;;;;;;;20.90;99.90;;;;;;5078480;28;20391;-75
2023/10/03 01:30:12;;;;;;;;;;;20.80;99.90;;;;;;5077036;28;19924;-75
2023/10/03 01:32:58;;;;;;;;;;;20.90;99.90;;;;;;5078350;28;19912;-75
2023/10/03 01:35:24;;;;;;;;;;;20.90;99.90;;;;;;5078026;28;20364;-76
2023/10/03 01:37:49;;;;;;;;;;;20.80;99.90;;;;;;5078246;28;19940;-76
2023/10/03 01:40:16;;;;;;;;;;;20.80;99.90;;;;;;5076567;28;19931;-76
2023/10/03 01:42:46;;;;;;;;;;;20.90;99.90;;;;;;5078445;28;20398;-75
2023/10/03 01:45:20;;;;;;;;;;;20.90;99.90;;;;;;5078073;28;19912;-76
2023/10/03 01:47:47;;;;;;;;;;;20.90;99.90;;;;;;5078246;28;19908;-76
2023/10/03 01:50:14;;;;;;;;;;;20.80;99.90;;;;;;5078141;28;19913;-76
2023/10/03 01:52:40;;;;;;;;;;;20.80;99.90;;;;;;5076985;28;19908;-76
2023/10/03 01:55:13;;;;;;;;;;;20.80;99.90;;;;;;5078063;28;19913;-76
2023/10/03 01:57:40;;;;;;;;;;;20.80;99.90;;;;;;5076672;28;19915;-76
2023/10/03 02:00:18;;;;;;;;;;;20.80;99.90;;;;;;5078025;28;19909;-76
2023/10/03 02:02:43;;;;;;;;;;;20.80;99.90;;;;;;5078269;28;20398;-76
2023/10/03 02:05:09;;;;;;;;;;;20.70;99.90;;;;;;5077946;28;19908;-76
2023/10/03 02:07:34;;;;;;;;;;;20.70;99.90;;;;;;5075498;28;19915;-75
2023/10/03 02:10:01;;;;;;;;;;;20.70;99.90;;;;;;5077315;28;19918;-76
2023/10/03 02:12:27;;;;;;;;;;;20.70;99.90;;;;;;5076567;28;19912;-76
2023/10/03 02:14:54;;;;;;;;;;;20.70;99.90;;;;;;5078115;28;19909;-76
2023/10/03 02:17:19;;;;;;;;;;;20.70;99.90;;;;;;5078580;28;19958;-77
2023/10/03 02:19:45;;;;;;;;;;;20.70;99.90;;;;;;5078142;28;19909;-76
2023/10/03 02:22:12;;;;;;;;;;;20.70;99.90;;;;;;5077528;28;20371;-76
2023/10/03 02:24:38;;;;;;;;;;;20.70;99.90;;;;;;5077560;28;19916;-76
2023/10/03 02:27:05;;;;;;;;;;;20.70;99.90;;;;;;5077436;28;19912;-76
2023/10/03 02:29:31;;;;;;;;;;;20.70;99.90;;;;;;5075976;28;19909;-76
2023/10/03 02:31:58;;;;;;;;;;;20.70;99.90;;;;;;5077337;28;19970;-76
2023/10/03 02:34:23;;;;;;;;;;;20.70;99.90;;;;;;5077253;28;20011;-77
2023/10/03 02:36:49;;;;;;;;;;;20.70;99.90;;;;;;5077555;28;19964;-75
2023/10/03 02:39:18;;;;;;;;;;;20.70;99.90;;;;;;5075475;28;19913;-77
2023/10/03 02:41:44;;;;;;;;;;;20.60;99.90;;;;;;5076835;28;19920;-76
2023/10/03 02:44:09;;;;;;;;;;;20.60;99.90;;;;;;5075414;28;19966;-77
2023/10/03 02:46:35;;;;;;;;;;;20.60;99.90;;;;;;5077260;28;19908;-76
2023/10/03 02:49:01;;;;;;;;;;;20.60;99.90;;;;;;5077470;28;19915;-76
2023/10/03 02:51:26;;;;;;;;;;;20.60;99.90;;;;;;5076519;28;20427;-79
2023/10/03 02:53:52;;;;;;;;;;;20.60;99.90;;;;;;5076269;28;19909;-79
2023/10/03 02:56:17;;;;;;;;;;;20.60;99.90;;;;;;5077147;28;20387;-78
2023/10/03 02:58:43;;;;;;;;;;;20.60;99.90;;;;;;5075608;28;20290;-78
2023/10/03 03:01:09;;;;;;;;;;;20.50;99.90;;;;;;5075160;28;19916;-77
2023/10/03 03:03:34;;;;;;;;;;;20.50;99.90;;;;;;5075487;28;20051;-76
2023/10/03 03:06:02;;;;;;;;;;;20.50;99.90;;;;;;5075216;28;20011;-77
2023/10/03 03:08:29;;;;;;;;;;;20.40;99.90;;;;;;5076253;28;19916;-77
2023/10/03 03:10:56;;;;;;;;;;;20.40;99.90;;;;;;5076543;28;19995;-79
2023/10/03 03:13:26;;;;;;;;;;;20.40;99.90;;;;;;5076729;28;19908;-78
2023/10/03 03:15:53;;;;;;;;;;;20.40;99.90;;;;;;5075116;28;19908;-78
2023/10/03 03:18:20;;;;;;;;;;;20.40;99.90;;;;;;5077137;28;19912;-79
2023/10/03 03:20:50;;;;;;;;;;;20.40;99.90;;;;;;5076268;28;19958;-76
2023/10/03 03:23:16;;;;;;;;;;;20.40;99.90;;;;;;5075401;28;19919;-78
2023/10/03 03:25:42;;;;;;;;;;;20.40;99.90;;;;;;5074788;28;19959;-76
2023/10/03 03:28:15;;;;;;;;;;;20.40;99.90;;;;;;5076458;28;19932;-77
2023/10/03 03:30:45;;;;;;;;;;;20.30;99.90;;;;;;5076333;28;20421;-78
2023/10/03 03:33:20;;;;;;;;;;;20.30;99.90;;;;;;5076637;28;19912;-76
2023/10/03 03:35:47;;;;;;;;;;;20.30;99.90;;;;;;5075983;28;19914;-76
2023/10/03 03:38:20;;;;;;;;;;;20.30;99.90;;;;;;5076112;28;19909;-75
2023/10/03 03:40:47;;;;;;;;;;;20.30;99.90;;;;;;5076022;28;19913;-75
2023/10/03 03:43:16;;;;;;;;;;;20.30;99.90;;;;;;5074644;28;19915;-76
2023/10/03 03:45:45;;;;;;;;;;;20.30;99.90;;;;;;5076462;28;19912;-78
2023/10/03 03:48:13;;;;;;;;;;;20.20;99.90;;;;;;5065490;28;19912;-77
2023/10/03 03:50:38;;;;;;;;;;;20.20;99.90;;;;;;5076185;28;19983;-77
2023/10/03 03:53:04;;;;;;;;;;;20.20;99.90;;;;;;5076195;28;19923;-74
2023/10/03 03:55:30;;;;;;;;;;;20.20;99.90;;;;;;5075800;28;20391;-75
2023/10/03 03:57:56;;;;;;;;;;;20.20;99.90;;;;;;5075676;28;19920;-77
2023/10/03 04:00:28;;;;;;;;;;;20.20;99.90;;;;;;5075708;28;19988;-77
2023/10/03 04:03:02;;;;;;;;;;;20.10;99.90;;;;;;5075718;28;20338;-75
2023/10/03 04:05:29;;;;;;;;;;;20.10;99.90;;;;;;5074686;28;20406;-77
2023/10/03 04:07:54;;;;;;;;;;;20.10;99.90;;;;;;5075861;28;20408;-77
2023/10/03 04:10:21;;;;;;;;;;;20.10;99.90;;;;;;5074317;28;19916;-76
2023/10/03 04:12:49;;;;;;;;;;;20.10;99.90;;;;;;5076180;28;19912;-76
2023/10/03 04:15:15;;;;;;;;;;;20.10;99.90;;;;;;5076808;28;20528;-77
2023/10/03 04:17:40;;;;;;;;;;;20.10;99.90;;;;;;5074909;28;19951;-76
2023/10/03 04:20:30;;;;;;;;;;;20.10;99.90;;;;;;5076009;28;19909;-76
2023/10/03 04:22:58;;;;;;;;;;;20.10;99.90;;;;;;5074169;28;19916;-75
2023/10/03 04:25:24;;;;;;;;;;;20.10;99.90;;;;;;5075543;28;19915;-75
2023/10/03 04:27:51;;;;;;;;;;;20.10;99.90;;;;;;5074122;28;19908;-77
2023/10/03 04:30:19;;;;;;;;;;;20.10;99.90;;;;;;5074331;28;19974;-75
2023/10/03 04:32:47;;;;;;;;;;;20.10;99.90;;;;;;5074189;28;20287;-78
2023/10/03 04:35:18;;;;;;;;;;;20.10;99.90;;;;;;5074377;28;19909;-78
2023/10/03 04:37:44;;;;;;;;;;;20.10;99.90;;;;;;5071537;28;19919;-78
2023/10/03 04:40:15;;;;;;;;;;;20.10;99.90;;;;;;5090951;28;19968;-76
2023/10/03 04:42:41;;;;;;;;;;;20.10;99.90;;;;;;5075249;28;19919;-76
2023/10/03 04:45:11;;;;;;;;;;;20.00;99.90;;;;;;5075701;28;19912;-75
2023/10/03 04:47:45;;;;;;;;;;;20.00;99.90;;;;;;5074296;28;19913;-76
2023/10/03 04:50:11;;;;;;;;;;;20.00;99.90;;;;;;5075411;28;19965;-78
2023/10/03 04:52:41;;;;;;;;;;;19.90;99.90;;;;;;5075677;28;19973;-76
2023/10/03 04:55:07;;;;;;;;;;;19.90;99.90;;;;;;5075103;28;19912;-76
2023/10/03 04:57:33;;;;;;;;;;;19.90;99.90;;;;;;5074455;28;19948;-77
2023/10/03 05:00:03;;;;;;;;;;;19.90;99.90;;;;;;5073917;28;20292;-76
2023/10/03 05:02:29;;;;;;;;;;;19.90;99.90;;;;;;5075369;28;19942;-75
2023/10/03 05:04:55;;;;;;;;;;;19.90;99.90;;;;;;5075372;28;19908;-75
2023/10/03 05:07:23;;;;;;;;;;;19.80;99.90;;;;;;5073994;28;19955;-75
2023/10/03 05:09:50;;;;;;;;;;;19.80;99.90;;;;;;5075073;28;19935;-76
2023/10/03 05:12:16;;;;;;;;;;;19.80;99.90;;;;;;5075905;28;19909;-76
2023/10/03 05:14:41;;;;;;;;;;;19.80;99.90;;;;;;5075200;28;19919;-76
2023/10/03 05:17:07;;;;;;;;;;;19.80;99.90;;;;;;5077468;28;19913;-75
2023/10/03 05:19:32;;;;;;;;;;;19.80;99.90;;;;;;5078740;28;20438;-76
2023/10/03 05:21:59;;;;;;;;;;;19.80;99.90;;;;;;5078725;28;19912;-75
2023/10/03 05:24:25;;;;;;;;;;;19.80;99.90;;;;;;5078496;28;19956;-75
2023/10/03 05:26:51;;;;;;;;;;;19.80;99.90;;;;;;5078603;28;19940;-75
2023/10/03 05:29:17;;;;;;;;;;;19.80;99.90;;;;;;5077375;28;19912;-76
2023/10/03 05:31:43;;;;;;;;;;;19.80;99.90;;;;;;5078218;28;20431;-74
2023/10/03 05:34:11;;;;;;;;;;;19.80;99.90;;;;;;5078251;28;20735;-75
2023/10/03 05:36:37;;;;;;;;;;;19.70;99.90;;;;;;5079245;28;19908;-74
2023/10/03 05:39:04;;;;;;;;;;;19.70;99.90;;;;;;5077727;28;19920;-74
2023/10/03 05:41:30;;;;;;;;;;;19.70;99.90;;;;;;5076485;28;19921;-75
2023/10/03 05:43:55;;;;;;;;;;;19.70;99.90;;;;;;5077045;28;20360;-74
2023/10/03 05:46:21;;;;;;;;;;;19.70;99.90;;;;;;5077609;28;20015;-75
2023/10/03 05:48:46;;;;;;;;;;;19.70;99.90;;;;;;5097759;28;20007;-75
2023/10/03 05:51:12;;;;;;;;;;;19.70;99.90;;;;;;5076673;28;20011;-75
2023/10/03 05:53:40;;;;;;;;;;;19.80;99.90;;;;;;5071304;28;20309;-74
2023/10/03 05:56:06;;;;;;;;;;;19.70;99.90;;;;;;5077067;28;19978;-75
2023/10/03 05:58:32;;;;;;;;;;;19.70;99.90;;;;;;5076964;28;19908;-75
2023/10/03 06:00:58;;;;;;;;;;;19.80;99.90;;;;;;5077698;28;20363;-74
2023/10/03 06:03:23;;;;;;;;;;;19.80;99.90;;;;;;5078272;28;19943;-74
2023/10/03 06:05:50;;;;;;;;;;;19.80;99.90;;;;;;5078869;28;19909;-75
2023/10/03 06:08:16;;;;;;;;;;;19.80;99.90;;;;;;5077066;28;19928;-75
2023/10/03 06:10:42;;;;;;;;;;;19.90;99.90;;;;;;5077628;28;20273;-75
2023/10/03 06:13:10;;;;;;;;;;;19.90;99.90;;;;;;5076572;28;19916;-76
2023/10/03 06:15:36;;;;;;;;;;;19.90;99.90;;;;;;5076887;28;20430;-75
2023/10/03 06:18:02;;;;;;;;;;;19.90;99.90;;;;;;5072171;28;19913;-76
2023/10/03 06:20:28;;;;;;;;;;;19.90;99.90;;;;;;5076881;28;19912;-76
2023/10/03 06:22:54;;;;;;;;;;;20.00;99.90;;;;;;5075076;28;19932;-76
2023/10/03 06:25:19;;;;;;;;;;;20.00;99.90;;;;;;5074133;28;19977;-77
2023/10/03 06:27:45;;;;;;;;;;;20.00;99.90;;;;;;5073467;28;19973;-75
2023/10/03 06:30:11;;;;;;;;;;;20.10;99.90;;;;;;5073882;28;20018;-76
2023/10/03 06:32:37;;;;;;;;;;;20.10;99.90;;;;;;5092587;28;19956;-75
2023/10/03 06:35:04;;;;;;;;;;;20.10;99.90;;;;;;5075158;28;20329;-76
2023/10/03 06:37:30;;;;;;;;;;;20.00;99.90;;;;;;5074406;28;19913;-77
2023/10/03 06:39:56;;;;;;;;;;;20.10;99.90;;;;;;5075855;28;20006;-76
2023/10/03 06:42:23;;;;;;;;;;;20.10;99.90;;;;;;5074707;28;19975;-75
2023/10/03 06:44:49;;;;;;;;;;;20.10;99.90;;;;;;5076488;28;19919;-76
2023/10/03 06:47:15;;;;;;;;;;;20.10;99.90;;;;;;5074082;28;19913;-77
2023/10/03 06:49:40;;;;;;;;;;;20.10;99.90;;;;;;5076371;28;19913;-75
2023/10/03 06:52:06;;;;;;;;;;;20.10;99.90;;;;;;5076166;28;19915;-76
2023/10/03 06:54:31;;;;;;;;;;;20.10;99.90;;;;;;5076350;28;19909;-77
2023/10/03 06:56:57;;;;;;;;;;;20.20;99.90;;;;;;5073986;28;20383;-79
2023/10/03 06:59:22;;;;;;;;;;;20.20;99.90;;;;;;5077077;28;20304;-77
2023/10/03 07:01:48;;;;;;;;;;;20.20;99.90;;;;;;5075590;28;20277;-76
2023/10/03 07:04:14;;;;;;;;;;;20.20;99.90;;;;;;5075035;28;19931;-77
2023/10/03 07:06:39;;;;;;;;;;;20.30;99.90;;;;;;5075409;28;20297;-75
2023/10/03 07:09:08;;;;;;;;;;;20.30;99.90;;;;;;5075908;28;19912;-76
2023/10/03 07:11:33;;;;;;;;;;;20.40;99.90;;;;;;5074328;28;19908;-77
2023/10/03 07:13:59;;;;;;;;;;;20.50;99.90;;;;;;5074262;28;19908;-78
2023/10/03 07:16:25;;;;;;;;;;;20.50;99.90;;;;;;5074276;28;19916;-76
2023/10/03 07:18:50;;;;;;;;;;;20.50;99.90;;;;;;5075766;28;20327;-77
2023/10/03 07:21:16;;;;;;;;;;;20.50;99.90;;;;;;5074241;28;19919;-75
2023/10/03 07:23:42;;;;;;;;;;;20.50;99.90;;;;;;5076175;28;19909;-76
2023/10/03 07:26:08;;;;;;;;;;;20.60;99.90;;;;;;5074693;28;20007;-76
2023/10/03 07:28:33;;;;;;;;;;;20.60;99.90;;;;;;5074581;28;19939;-76
2023/10/03 07:30:59;;;;;;;;;;;20.60;99.90;;;;;;5073669;28;19970;-75
2023/10/03 07:33:24;;;;;;;;;;;20.60;99.90;;;;;;5075322;28;19926;-77
2023/10/03 07:35:50;;;;;;;;;;;20.60;99.90;;;;;;5075352;28;19955;-77
2023/10/03 07:38:16;;;;;;;;;;;20.60;99.90;;;;;;5084819;28;19917;-77
2023/10/03 07:40:41;;;;;;;;;;;20.70;99.90;;;;;;5074617;28;20318;-77
2023/10/03 07:43:09;;;;;;;;;;;20.70;99.90;;;;;;5074787;28;19909;-75
2023/10/03 07:45:37;;;;;;;;;;;20.70;99.90;;;;;;5074870;28;19994;-76
2023/10/03 07:48:05;;;;;;;;;;;20.70;99.90;;;;;;5074290;28;19909;-76
2023/10/03 07:50:31;;;;;;;;;;;20.80;99.90;;;;;;5075322;28;20094;-78
2023/10/03 07:52:57;;;;;;;;;;;20.80;99.90;;;;;;5075374;28;19948;-76
2023/10/03 07:55:25;;;;;;;;;;;20.80;99.90;;;;;;5075732;28;20380;-78
2023/10/03 07:57:54;;;;;;;;;;;20.90;99.90;;;;;;5069513;28;19913;-76
2023/10/03 08:00:20;;;;;;;;;;;20.90;99.90;;;;;;5075081;28;20007;-76
2023/10/03 08:02:49;;;;;;;;;;;21.00;99.90;;;;;;5074823;28;19984;-78
2023/10/03 08:05:15;;;;;;;;;;;21.00;99.90;;;;;;5075306;28;20322;-75
2023/10/03 08:07:47;;;;;;;;;;;21.10;99.90;;;;;;5074392;28;19912;-78
2023/10/03 08:10:16;;;;;;;;;;;21.20;99.90;;;;;;5073740;28;19978;-76
2023/10/03 08:12:42;;;;;;;;;;;21.30;99.90;;;;;;5072224;28;19919;-76
2023/10/03 08:15:17;;;;;;;;;;;21.30;99.90;;;;;;5074931;28;19909;-74
2023/10/03 08:17:48;;;;;;;;;;;21.50;99.90;;;;;;5074774;28;19913;-76
2023/10/03 08:20:14;;;;;;;;;;;21.50;99.90;;;;;;5075256;28;19909;-75
2023/10/03 08:22:41;;;;;;;;;;;21.60;99.90;;;;;;5075586;28;19935;-76
2023/10/03 08:25:10;;;;;;;;;;;21.50;99.90;;;;;;5074752;28;20369;-77
2023/10/03 08:27:35;;;;;;;;;;;21.50;99.90;;;;;;5074185;28;19999;-78
2023/10/03 08:30:03;;;;;;;;;;;21.50;99.90;;;;;;5074284;28;19947;-76
2023/10/03 08:32:30;;;;;;;;;;;21.50;99.90;;;;;;5073572;28;19995;-76
2023/10/03 08:34:57;;;;;;;;;;;21.50;99.90;;;;;;5074767;28;19912;-75
2023/10/03 08:37:22;;;;;;;;;;;21.50;99.90;;;;;;5074367;28;19916;-77
2023/10/03 08:39:48;;;;;;;;;;;21.50;99.90;;;;;;5073863;28;19913;-76
2023/10/03 08:42:35;;;;;;;;;;;21.60;99.90;;;;;;5074749;28;20402;-76
2023/10/03 08:45:16;;;;;;;;;;;21.60;99.90;;;;;;5073173;28;19975;-75
2023/10/03 08:47:47;;;;;;;;;;;21.60;99.90;;;;;;5074425;28;20430;-75
2023/10/03 08:50:15;;;;;;;;;;;21.60;99.90;;;;;;5076134;28;20012;-76
2023/10/03 08:52:46;;;;;;;;;;;21.60;99.90;;;;;;5077061;28;19908;-78
2023/10/03 08:55:14;;;;;;;;;;;21.60;99.90;;;;;;5078710;28;20326;-79
2023/10/03 08:57:40;;;;;;;;;;;21.70;99.90;;;;;;5076196;28;19998;-75
2023/10/03 09:00:09;;;;;;;;;;;21.70;99.90;;;;;;5078265;28;19959;-76
2023/10/03 09:02:45;;;;;;;;;;;21.80;99.90;;;;;;5078201;28;19972;-77
2023/10/03 09:05:20;;;;;;;;;;;21.90;99.90;;;;;;5078010;28;20300;-78
2023/10/03 09:07:46;;;;;;;;;;;22.00;99.90;;;;;;5074046;28;19909;-77
2023/10/03 09:10:22;;;;;;;;;;;22.10;99.90;;;;;;5077607;28;21401;-78
2023/10/03 09:12:51;;;;;;;;;;;22.10;99.90;;;;;;5075336;28;19909;-79
2023/10/03 09:15:22;;;;;;;;;;;22.20;99.90;;;;;;5076890;28;19912;-77
2023/10/03 09:17:49;;;;;;;;;;;22.20;99.90;;;;;;5077577;28;19908;-81
2023/10/03 09:20:22;;;;;;;;;;;22.10;99.90;;;;;;5077924;28;19908;-80
2023/10/03 09:22:47;;;;;;;;;;;22.20;99.90;;;;;;5074670;28;20352;-78
2023/10/03 09:25:15;;;;;;;;;;;22.20;99.90;;;;;;5077010;28;19915;-81
2023/10/03 09:27:41;;;;;;;;;;;22.20;99.90;;;;;;5072405;28;20681;-82
2023/10/03 09:30:09;;;;;;;;;;;22.20;99.90;;;;;;5075695;28;19924;-80
2023/10/03 09:32:39;;;;;;;;;;;22.20;99.90;;;;;;5077446;28;19908;-81
2023/10/03 09:35:11;;;;;;;;;;;22.20;99.90;;;;;;5076434;28;20372;-81
2023/10/03 09:37:43;;;;;;;;;;;22.20;99.90;;;;;;5075729;28;19913;-80
2023/10/03 09:40:16;;;;;;;;;;;22.20;99.90;;;;;;5077141;28;19914;-79
2023/10/03 09:42:48;;;;;;;;;;;22.30;99.90;;;;;;5077056;28;19912;-80
2023/10/03 09:45:18;;;;;;;;;;;22.30;99.90;;;;;;5072640;28;19992;-82
2023/10/03 09:47:44;;;;;;;;;;;22.50;99.90;;;;;;5075987;28;20052;-82
2023/10/03 09:50:11;;;;;;;;;;;22.50;99.90;;;;;;5077361;28;19912;-82
2023/10/03 09:52:37;;;;;;;;;;;22.50;99.90;;;;;;5077526;28;19915;-82
2023/10/03 09:55:49;;;;;;;;;;;22.40;99.90;;;;;;5077497;28;20011;-82
2023/10/03 09:57:54;;;;;;;;;;;22.40;99.90;;;;;;5072078;28;19917;-84
2023/10/03 10:00:38;;;;;;;;;;;22.20;99.90;;;;;;5077273;28;19913;-79
2023/10/03 10:03:06;;;;;;;;;;;22.20;99.90;;;;;;5074553;28;19923;-77
2023/10/03 10:05:32;;;;;;;;;;;22.40;99.90;;;;;;5077223;28;19916;-80
2023/10/03 10:08:00;;;;;;;;;;;22.60;99.90;;;;;;5076753;28;19916;-81
2023/10/03 10:10:26;;;;;;;;;;;22.60;99.90;;;;;;5077155;28;19912;-79
2023/10/03 10:13:13;;;;;;;;;;;22.70;99.90;;;;;;5077401;28;19962;-82
2023/10/03 10:15:58;;;;;;;;;;;22.80;99.90;;;;;;5076590;28;20299;-81
2023/10/03 10:18:43;;;;;;;;;;;22.90;99.90;;;;;;5076225;28;19923;-81
2023/10/03 10:21:22;;;;;;;;;;;23.10;99.90;;;;;;5076643;28;19920;-81
2023/10/03 10:24:07;;;;;;;;;;;23.00;99.90;;;;;;5073469;28;19915;-81
2023/10/03 10:26:34;;;;;;;;;;;23.10;99.90;;;;;;5072850;28;19909;-82
2023/10/03 10:29:09;;;;;;;;;;;23.30;99.90;;;;;;5075976;28;19913;-80
2023/10/03 10:31:37;;;;;;;;;;;23.40;99.90;;;;;;5074808;28;19972;-81
2023/10/03 10:34:20;;;;;;;;;;;23.40;99.90;;;;;;5076768;28;19909;-78
2023/10/03 10:37:09;;;;;;;;;;;23.40;99.90;;;;;;5073389;28;19931;-79
2023/10/03 10:39:53;;;;;;;;;;;23.50;99.90;;;;;;5077192;28;19912;-80
2023/10/03 10:42:22;;;;;;;;;;;23.60;99.90;;;;;;5073110;28;19916;-80
2023/10/03 10:45:03;;;;;;;;;;;23.60;99.90;;;;;;5070919;28;19998;-82
2023/10/03 10:47:28;;;;;;;;;;;23.60;99.90;;;;;;5071644;28;19996;-78
2023/10/03 10:49:54;;;;;;;;;;;23.50;99.90;;;;;;5074895;28;19948;-81
2023/10/03 10:52:20;;;;;;;;;;;23.40;99.90;;;;;;5076067;28;20156;-81
2023/10/03 10:54:46;;;;;;;;;;;23.60;99.90;;;;;;5074943;28;20700;-82
2023/10/03 10:57:12;;;;;;;;;;;23.70;99.90;;;;;;5073794;28;20403;-81
2023/10/03 10:59:41;;;;;;;;;;;23.80;99.90;;;;;;5073447;28;19913;-83
2023/10/03 11:02:15;;;;;;;;;;;24.00;99.90;;;;;;5076038;28;19937;-81
2023/10/03 11:04:41;;;;;;;;;;;24.30;99.90;;;;;;5075393;28;20364;-80
2023/10/03 11:07:06;;;;;;;;;;;24.50;99.90;;;;;;5101406;28;20141;-82
2023/10/03 11:09:38;;;;;;;;;;;24.80;99.90;;;;;;5076960;28;19919;-79
2023/10/03 11:12:07;;;;;;;;;;;24.90;99.90;;;;;;5075969;28;19909;-81
2023/10/03 11:14:33;;;;;;;;;;;24.90;99.90;;;;;;5073633;28;20264;-82
2023/10/03 11:16:59;;;;;;;;;;;24.90;99.90;;;;;;5075307;28;19919;-82
2023/10/03 11:19:26;;;;;;;;;;;24.90;99.90;;;;;;5074593;28;20546;-80
2023/10/03 11:21:52;;;;;;;;;;;24.90;99.90;;;;;;5075620;28;19919;-82
2023/10/03 11:24:21;;;;;;;;;;;24.90;99.90;;;;;;5075643;28;20373;-81
2023/10/03 11:26:47;;;;;;;;;;;25.00;99.90;;;;;;5075763;28;20273;-82
2023/10/03 11:29:15;;;;;;;;;;;25.10;99.90;;;;;;5075601;28;19981;-81
2023/10/03 11:31:44;;;;;;;;;;;25.10;99.90;;;;;;5074723;28;19920;-84
2023/10/03 11:34:10;;;;;;;;;;;25.20;99.90;;;;;;5076671;28;19913;-82
2023/10/03 11:36:43;;;;;;;;;;;25.10;99.90;;;;;;5074430;28;19962;-82
2023/10/03 11:39:10;;;;;;;;;;;25.10;99.90;;;;;;5074949;28;19913;-83
2023/10/03 11:41:39;;;;;;;;;;;25.20;99.90;;;;;;5075329;28;19923;-82
2023/10/03 11:44:17;;;;;;;;;;;25.30;99.90;;;;;;5075555;28;20015;-81
2023/10/03 11:46:44;;;;;;;;;;;25.20;99.90;;;;;;5074027;28;20446;-79
2023/10/03 11:49:09;;;;;;;;;;;25.10;99.90;;;;;;5075479;28;20296;-81
2023/10/03 11:51:38;;;;;;;;;;;25.00;99.90;;;;;;5075838;28;19999;-80
2023/10/03 11:54:09;;;;;;;;;;;24.90;99.90;;;;;;5075701;28;19912;-80
2023/10/03 11:56:39;;;;;;;;;;;24.60;99.90;;;;;;5072955;28;19958;-82
2023/10/03 11:59:05;;;;;;;;;;;24.40;99.90;;;;;;5075232;28;19913;-82
2023/10/03 12:01:30;;;;;;;;;;;24.40;99.90;;;;;;5075118;28;19919;-79
2023/10/03 12:03:56;;;;;;;;;;;24.20;99.90;;;;;;5074734;28;20583;-81
2023/10/03 12:06:23;;;;;;;;;;;24.20;99.90;;;;;;5075108;28;19919;-82
2023/10/03 12:08:49;;;;;;;;;;;24.10;99.90;;;;;;5074513;28;19940;-80
2023/10/03 12:11:16;;;;;;;;;;;24.00;99.90;;;;;;5073809;28;19958;-81
2023/10/03 12:13:41;;;;;;;;;;;24.10;99.90;;;;;;5074902;28;19913;-81
2023/10/03 12:16:07;;;;;;;;;;;24.20;99.90;;;;;;5073925;28;19923;-81
2023/10/03 12:18:32;;;;;;;;;;;24.40;99.90;;;;;;5074152;28;19958;-81
2023/10/03 12:20:58;;;;;;;;;;;24.60;99.90;;;;;;5073569;28;20517;-80
2023/10/03 12:23:24;;;;;;;;;;;24.80;99.90;;;;;;5074973;28;19975;-78
2023/10/03 12:25:49;;;;;;;;;;;24.60;99.90;;;;;;5076481;28;19947;-81
2023/10/03 12:28:17;;;;;;;;;;;24.40;99.90;;;;;;5077690;28;20406;-80
2023/10/03 12:30:42;;;;;;;;;;;24.20;99.90;;;;;;5078648;28;19924;-80
2023/10/03 12:33:11;;;;;;;;;;;24.20;99.90;;;;;;5078543;28;19908;-80
2023/10/03 12:35:40;;;;;;;;;;;24.40;99.90;;;;;;5077599;28;20548;-83
2023/10/03 12:38:06;;;;;;;;;;;24.40;99.90;;;;;;5077991;28;19947;-81
2023/10/03 12:40:31;;;;;;;;;;;24.40;99.90;;;;;;5077284;28;19912;-79
2023/10/03 12:42:57;;;;;;;;;;;24.50;99.90;;;;;;5077974;28;19912;-81
2023/10/03 12:45:24;;;;;;;;;;;24.50;99.90;;;;;;5078251;28;19926;-81
2023/10/03 12:47:53;;;;;;;;;;;24.50;99.90;;;;;;5076475;28;19921;-81
2023/10/03 12:50:21;;;;;;;;;;;24.60;99.90;;;;;;5078245;28;20292;-83
2023/10/03 12:52:48;;;;;;;;;;;24.70;99.90;;;;;;5078575;28;20443;-82
2023/10/03 12:55:15;;;;;;;;;;;24.70;99.90;;;;;;5077026;28;20384;-83
2023/10/03 12:57:41;;;;;;;;;;;24.70;99.90;;;;;;5077683;28;19927;-81
2023/10/03 13:00:08;;;;;;;;;;;24.70;99.90;;;;;;5078821;28;19936;-81
2023/10/03 13:02:34;;;;;;;;;;;24.60;99.90;;;;;;5077576;28;19965;-82
2023/10/03 13:05:01;;;;;;;;;;;24.40;99.90;;;;;;5078706;28;19958;-81
2023/10/03 13:07:26;;;;;;;;;;;24.20;99.90;;;;;;5077907;28;19909;-80
2023/10/03 13:09:52;;;;;;;;;;;24.10;99.90;;;;;;5078066;28;20399;-82
2023/10/03 13:12:18;;;;;;;;;;;24.00;99.90;;;;;;5077472;28;20583;-81
2023/10/03 13:14:43;;;;;;;;;;;23.90;99.90;;;;;;5078207;28;19919;-80
2023/10/03 13:17:13;;;;;;;;;;;23.80;99.90;;;;;;5076254;28;19919;-81
2023/10/03 13:19:39;;;;;;;;;;;23.70;99.90;;;;;;5078103;28;19916;-80
2023/10/03 13:22:05;;;;;;;;;;;23.70;99.90;;;;;;5077873;28;20304;-80
2023/10/03 13:24:31;;;;;;;;;;;23.60;99.90;;;;;;5079084;28;20015;-80
2023/10/03 13:26:57;;;;;;;;;;;23.30;99.90;;;;;;5077262;28;19958;-78
2023/10/03 13:29:23;;;;;;;;;;;23.10;99.90;;;;;;5077780;28;20037;-79
2023/10/03 13:31:50;;;;;;;;;;;23.00;99.90;;;;;;5077229;28;20697;-79
2023/10/03 13:34:16;;;;;;;;;;;22.80;99.90;;;;;;5077691;28;20684;-79
2023/10/03 13:36:41;;;;;;;;;;;22.60;99.90;;;;;;5075126;28;19916;-79
2023/10/03 13:39:07;;;;;;;;;;;22.60;99.90;;;;;;5077532;28;20372;-80
2023/10/03 13:41:34;;;;;;;;;;;22.60;99.90;;;;;;5075963;28;20326;-79
2023/10/03 13:44:00;;;;;;;;;;;22.70;99.90;;;;;;5077524;28;19916;-80
2023/10/03 13:46:25;;;;;;;;;;;22.80;99.90;;;;;;5076688;28;19920;-77
2023/10/03 13:48:52;;;;;;;;;;;22.90;99.90;;;;;;5076869;28;19958;-81
2023/10/03 13:51:17;;;;;;;;;;;23.00;99.90;;;;;;5077475;28;19917;-79
2023/10/03 13:53:43;;;;;;;;;;;23.00;99.90;;;;;;5077328;28;19912;-79
2023/10/03 13:56:09;;;;;;;;;;;23.00;99.90;;;;;;5076449;28;20284;-79
2023/10/03 13:58:36;;;;;;;;;;;22.90;99.90;;;;;;5076731;28;19919;-76
2023/10/03 14:01:03;;;;;;;;;;;22.70;99.90;;;;;;5077079;28;19952;-79
2023/10/03 14:03:31;;;;;;;;;;;22.60;99.90;;;;;;5075671;28;19920;-79
2023/10/03 14:05:58;;;;;;;;;;;22.50;99.90;;;;;;5075807;28;20423;-80
2023/10/03 14:08:24;;;;;;;;;;;22.30;99.90;;;;;;5075323;28;19931;-81
2023/10/03 14:10:49;;;;;;;;;;;22.20;99.90;;;;;;5076693;28;20045;-81
2023/10/03 14:13:16;;;;;;;;;;;22.00;99.90;;;;;;5075693;28;19962;-80
2023/10/03 14:15:43;;;;;;;;;;;22.00;99.90;;;;;;5077140;28;19913;-81
2023/10/03 14:18:11;;;;;;;;;;;21.90;99.90;;;;;;5076284;28;19958;-79
2023/10/03 14:20:39;;;;;;;;;;;22.00;99.90;;;;;;5075587;28;19913;-78
2023/10/03 14:23:05;;;;;;;;;;;22.10;99.90;;;;;;5076013;28;20296;-78